メインページ
METAR-TAF:

METAR-TAF

空港 :

ンジャメナ国際空港

ンジャメナ, チャド

緯度: 12-08N, 経度: 015-02E, 海抜: 295m

現時点の気象観測

当レポートは19分前の13:00(UTC)に作成
南/南西の風 11kt、南/南西から西の間で変化する
気温 39°C
湿度 33%
気圧 1007 hPa
視程10km以上
高度4000ftの雲はほとんどない

METAR: FTTJ 181300Z 20011KT 200V280 9999 FEW040 39/20 Q1007 NOSIG

時間: 14:19 (13:19 UTC)

予報

当レポートは2時間19分前の11:00(UTC)に作成
予報は18日の 12時(UTC)から 19日の 18時(UTC)まで有効
西/南西の風 10kt
視程: 7000m
確率 30% :
18日の 12時(UTC)から 18日の 18時(UTC)まで一時的に
視程: 4000m
激しい雷雨, 雨
19日の 10時(UTC)から 19日の 16時(UTC)まで一時的に
視程: 3000m
激しい雷雨, 雨

TAF: FTTJ 181100Z 1812/1918 24010KT 7000 NSC PROB30 TEMPO 1812/1818 4000 TSRA TEMPO 1910/1916 3000 TSRA

4,000以上の空港の気象観測と天気予報(METAR報とTAF報)

利用可能な観測所は地図上に黄色い丸と赤い丸で示す。

丸の上にカーソルを重ねると観測所名を参照できる。

次にクリックすると気象観測と天気予報を参照できる。

マップの切り替え:黒色「×」印の緑ボタンをクリックして拡大、「-」印の緑ボタンをクリックして縮小、緑色の三角印をクリックして隣りの地図に切り替え


METAR-TAF: